KNRB/NRB METAR and TAF weather

Enter ICAO airport designator
Station Type Date Time Source
KNRB METAR 2022/01/27 22:52 UTC NOAA

KNRB 272252Z 01016G22KT 10SM OVC012 11/08 A3018 RMK AO2 SLP218 T01110083


Station Type Date Time Source
KNRB Decoded METAR 2022/01/27 22:52 UTC NOAA

MAYPORT NAVAL AIR FACILITY, FL, United States (KNRB) 30-24N 81-25W 4M
Jan 27, 2022 - 05:52 PM EST / 2022.01.27 2252 UTC
Wind: from the N (010 degrees) at 18 MPH (16 KT) gusting to 25 MPH (22 KT):0
Visibility: 10 mile(s):0
Sky conditions: overcast
Temperature: 52.0 F (11.1 C)
Dew Point: 46.9 F (8.3 C)
Relative Humidity: 82%
Pressure (altimeter): 30.18 in. Hg (1022 hPa)
ob: KNRB 272252Z 01016G22KT 10SM OVC012 11/08 A3018 RMK AO2 SLP218 T01110083
cycle: 23

Station Type Date Time Source
KNRB TAF 2022/01/27 23:59 UTC NOAA

TAF KNRB 2723/2823 02015G20KT 9999 VCSH BKN015 OVC060 QNH3015INS
FM280200 02015KT 9999 SCT010 BKN025 OVC060 QNH3015INS
FM281200 36010G15KT 9999 VCSH SCT020 BKN060 BKN250 QNH3008INS
FM281600 34010G15KT 9999 FEW060 BKN250 QNH2997INS AUTOMATED SENSOR METWATCH 2804 TIL 2810 T11/2711Z T13/2818Z FN20083

Example: see airport list